Time;durP1;ratioP1;P1;durP2;ratioP2;P2;SDS_P1;SDS_P2;PMS_P1;PMS_P2;Temp;Humidity;BMP_temperature;BMP_pressure;BME280_temperature;BME280_humidity;BME280_pressure;Samples;Min_cycle;Max_cycle;Signal;HPM_P1;HPM_P2
2023/05/28 00:01:32;;;;;;;7.15;2.78;;;14.70;99.80;;;;;;5056467;28;20521;-83
2023/05/28 00:03:58;;;;;;;5.90;3.17;;;14.60;99.80;;;;;;5062113;28;20027;-83
2023/05/28 00:06:23;;;;;;;5.68;2.70;;;14.60;99.80;;;;;;5056833;28;20495;-83
2023/05/28 00:08:49;;;;;;;5.88;2.90;;;14.60;99.80;;;;;;5073214;28;20482;-83
2023/05/28 00:11:14;;;;;;;7.32;2.78;;;14.60;99.90;;;;;;5073228;28;20115;-82
2023/05/28 00:13:40;;;;;;;8.13;2.90;;;14.50;99.90;;;;;;5071833;28;20036;-83
2023/05/28 00:16:05;;;;;;;5.63;3.22;;;14.40;99.90;;;;;;5070862;28;20043;-83
2023/05/28 00:18:31;;;;;;;5.93;3.10;;;14.40;99.90;;;;;;5061263;28;20328;-83
2023/05/28 00:20:56;;;;;;;6.07;2.90;;;14.40;99.90;;;;;;5071476;28;20060;-84
2023/05/28 00:23:22;;;;;;;5.30;3.30;;;14.30;99.90;;;;;;5061569;28;20393;-83
2023/05/28 00:25:48;;;;;;;7.95;3.50;;;14.20;99.90;;;;;;5064226;28;20043;-83
2023/05/28 00:28:13;;;;;;;6.88;3.10;;;14.20;99.90;;;;;;5075724;28;20436;-83
2023/05/28 00:30:39;;;;;;;6.60;3.22;;;14.20;99.90;;;;;;5074646;28;20035;-83
2023/05/28 00:33:05;;;;;;;5.35;2.88;;;14.20;99.90;;;;;;5074778;28;20028;-83
2023/05/28 00:35:30;;;;;;;4.32;2.50;;;14.10;99.90;;;;;;5064833;28;20035;-83
2023/05/28 00:37:56;;;;;;;6.78;2.97;;;14.10;99.90;;;;;;5074754;28;20112;-83
2023/05/28 00:40:22;;;;;;;5.93;3.00;;;14.10;99.90;;;;;;5076558;28;20058;-83
2023/05/28 00:42:47;;;;;;;6.32;3.20;;;14.10;99.90;;;;;;5074702;28;20032;-84
2023/05/28 00:45:13;;;;;;;8.20;3.17;;;14.10;99.90;;;;;;5059150;28;20039;-83
2023/05/28 00:47:40;;;;;;;6.50;3.33;;;14.00;99.90;;;;;;5074740;28;20044;-83
2023/05/28 00:50:12;;;;;;;7.93;3.63;;;14.00;99.90;;;;;;5059949;28;20050;-83
2023/05/28 00:52:40;;;;;;;7.40;2.85;;;14.10;99.90;;;;;;5059068;28;20020;-84
2023/05/28 00:55:15;;;;;;;7.07;3.42;;;14.10;99.90;;;;;;5062735;28;20189;-83
2023/05/28 00:57:41;;;;;;;8.63;3.42;;;14.10;99.90;;;;;;5058004;28;20550;-83
2023/05/28 01:00:09;;;;;;;8.05;3.55;;;14.00;99.90;;;;;;5063728;28;20035;-83
2023/05/28 01:02:35;;;;;;;7.38;3.15;;;14.00;99.90;;;;;;5073873;28;20025;-83
2023/05/28 01:05:01;;;;;;;7.25;3.22;;;14.00;99.90;;;;;;5073833;28;20032;-83
2023/05/28 01:07:27;;;;;;;7.88;3.28;;;13.90;99.90;;;;;;5065179;28;20504;-83
2023/05/28 01:09:53;;;;;;;5.70;2.85;;;13.90;99.90;;;;;;5074212;28;20039;-83
2023/05/28 01:12:19;;;;;;;7.65;3.40;;;13.90;99.90;;;;;;5064009;28;20082;-83
2023/05/28 01:14:46;;;;;;;5.80;3.17;;;13.80;99.90;;;;;;5074381;28;20559;-83
2023/05/28 01:17:12;;;;;;;7.60;3.25;;;13.80;99.90;;;;;;5059787;28;20073;-83
2023/05/28 01:19:37;;;;;;;6.65;3.63;;;13.80;99.90;;;;;;5072551;28;20685;-83
2023/05/28 01:22:05;;;;;;;6.88;3.70;;;13.70;99.90;;;;;;5073795;28;20052;-83
2023/05/28 01:24:33;;;;;;;9.98;4.15;;;13.70;99.90;;;;;;5075668;28;20020;-83
2023/05/28 01:27:00;;;;;;;6.55;3.17;;;13.70;99.90;;;;;;5074037;28;20064;-83
2023/05/28 01:29:25;;;;;;;10.95;3.33;;;13.70;99.90;;;;;;5058508;28;20027;-83
2023/05/28 01:31:51;;;;;;;6.35;3.10;;;13.70;99.90;;;;;;5074558;28;20020;-83
2023/05/28 01:34:16;;;;;;;8.32;3.50;;;13.70;99.90;;;;;;5064434;28;20036;-83
2023/05/28 01:36:46;;;;;;;6.03;3.25;;;13.60;99.90;;;;;;5062213;28;20036;-84
2023/05/28 01:39:16;;;;;;;9.48;3.55;;;13.60;99.90;;;;;;5061087;28;20032;-85
2023/05/28 01:41:45;;;;;;;8.50;3.40;;;13.60;99.90;;;;;;5059115;28;20580;-84
2023/05/28 01:44:13;;;;;;;12.02;4.47;;;13.60;99.90;;;;;;5072971;28;20028;-86
2023/05/28 01:46:40;;;;;;;7.82;3.25;;;13.60;99.90;;;;;;5058882;28;20094;-85
2023/05/28 01:49:06;;;;;;;9.50;3.33;;;13.60;99.90;;;;;;5061948;28;20465;-84
2023/05/28 01:51:32;;;;;;;10.02;3.92;;;13.60;99.90;;;;;;5063840;28;20065;-84
2023/05/28 01:53:58;;;;;;;8.40;3.60;;;13.50;99.90;;;;;;5074151;28;20027;-85
2023/05/28 01:56:24;;;;;;;9.10;3.85;;;13.50;99.90;;;;;;5064502;28;20025;-84
2023/05/28 01:58:50;;;;;;;8.38;3.30;;;13.50;99.90;;;;;;5073649;28;20124;-84
2023/05/28 02:01:27;;;;;;;7.95;3.80;;;13.50;99.90;;;;;;5058102;28;20020;-84
2023/05/28 02:03:53;;;;;;;8.77;3.80;;;13.40;99.90;;;;;;5072479;28;20028;-85
2023/05/28 02:06:19;;;;;;;6.13;3.25;;;13.40;99.90;;;;;;5059756;28;22045;-85
2023/05/28 02:08:45;;;;;;;6.55;3.30;;;13.40;99.90;;;;;;5060338;28;20473;-85
2023/05/28 02:11:10;;;;;;;8.70;3.92;;;13.30;99.90;;;;;;5062774;28;20502;-85
2023/05/28 02:13:36;;;;;;;7.93;3.15;;;13.30;99.90;;;;;;5074233;28;20028;-86
2023/05/28 02:16:01;;;;;;;7.85;3.58;;;13.30;99.90;;;;;;5057308;28;20718;-85
2023/05/28 02:18:27;;;;;;;7.78;4.00;;;13.20;99.90;;;;;;5059729;28;20123;-85
2023/05/28 02:20:53;;;;;;;6.18;2.90;;;13.20;99.90;;;;;;5073468;28;20047;-85
2023/05/28 02:23:18;;;;;;;6.38;3.05;;;13.20;99.90;;;;;;5074275;28;20047;-85
2023/05/28 02:25:44;;;;;;;7.43;3.15;;;13.10;99.90;;;;;;5058646;28;20114;-85
2023/05/28 02:28:10;;;;;;;5.95;2.97;;;13.10;99.90;;;;;;5056246;28;20044;-84
2023/05/28 02:30:36;;;;;;;6.55;2.95;;;13.10;99.90;;;;;;5056677;28;20432;-85
2023/05/28 02:33:01;;;;;;;8.00;3.70;;;13.00;99.90;;;;;;5065192;28;20075;-84
2023/05/28 02:35:27;;;;;;;6.05;3.15;;;13.00;99.90;;;;;;5063286;28;20032;-86
2023/05/28 02:37:52;;;;;;;7.65;3.30;;;12.90;99.90;;;;;;5058674;28;20500;-86
2023/05/28 02:40:18;;;;;;;10.45;3.63;;;12.90;99.90;;;;;;5074367;28;20049;-85
2023/05/28 02:42:44;;;;;;;5.90;2.90;;;12.90;99.90;;;;;;5061989;28;20382;-86
2023/05/28 02:45:10;;;;;;;7.93;3.38;;;12.90;99.90;;;;;;5072426;28;20044;-85
2023/05/28 02:47:35;;;;;;;8.25;3.55;;;12.90;99.90;;;;;;5058102;28;20046;-85
2023/05/28 02:50:01;;;;;;;7.25;3.33;;;12.90;99.90;;;;;;5072808;28;20040;-84
2023/05/28 02:52:26;;;;;;;8.38;3.50;;;12.80;99.90;;;;;;5057447;28;20028;-85
2023/05/28 02:54:52;;;;;;;8.77;3.78;;;12.80;99.90;;;;;;5074393;28;20078;-84
2023/05/28 02:57:18;;;;;;;6.43;3.60;;;12.90;99.90;;;;;;5074199;28;20515;-84
2023/05/28 02:59:43;;;;;;;10.73;4.43;;;12.80;99.90;;;;;;5071733;28;20051;-85
2023/05/28 03:02:09;;;;;;;8.60;3.78;;;12.80;99.90;;;;;;5057473;28;20073;-84
2023/05/28 03:04:35;;;;;;;9.27;3.75;;;12.80;99.90;;;;;;5073595;28;20036;-85
2023/05/28 03:07:01;;;;;;;9.20;3.88;;;12.80;99.90;;;;;;5058661;28;20024;-85
2023/05/28 03:09:27;;;;;;;8.88;3.70;;;12.70;99.90;;;;;;5062886;28;20024;-84
2023/05/28 03:11:52;;;;;;;7.72;3.58;;;12.70;99.90;;;;;;5057697;28;20466;-84
2023/05/28 03:14:18;;;;;;;11.63;3.88;;;12.70;99.90;;;;;;5072890;28;20034;-84
2023/05/28 03:16:44;;;;;;;8.48;4.05;;;12.60;99.90;;;;;;5073062;28;20050;-85
2023/05/28 03:19:09;;;;;;;7.95;3.40;;;12.60;99.90;;;;;;5061875;28;20542;-84
2023/05/28 03:21:35;;;;;;;6.13;3.40;;;12.60;99.90;;;;;;5072654;28;20525;-83
2023/05/28 03:24:01;;;;;;;8.75;3.80;;;12.50;99.90;;;;;;5074352;28;20551;-84
2023/05/28 03:26:26;;;;;;;6.63;3.92;;;12.50;99.90;;;;;;5063695;28;20044;-85
2023/05/28 03:28:52;;;;;;;8.25;3.72;;;12.50;99.90;;;;;;5071613;28;20109;-85
2023/05/28 03:31:19;;;;;;;8.80;4.00;;;12.50;99.90;;;;;;5072509;28;20040;-85
2023/05/28 03:33:45;;;;;;;8.50;3.90;;;12.50;99.90;;;;;;5062020;28;20025;-85
2023/05/28 03:36:11;;;;;;;8.82;4.22;;;12.50;99.90;;;;;;5073651;28;20496;-85
2023/05/28 03:38:36;;;;;;;7.97;4.00;;;12.50;99.90;;;;;;5058496;28;20538;-85
2023/05/28 03:41:02;;;;;;;9.80;4.50;;;12.50;99.90;;;;;;5060803;28;20036;-84
2023/05/28 03:43:27;;;;;;;9.55;4.40;;;12.50;99.90;;;;;;5056527;28;20032;-85
2023/05/28 03:45:53;;;;;;;11.77;4.90;;;12.50;99.90;;;;;;5063326;28;20186;-85
2023/05/28 03:48:20;;;;;;;9.85;4.75;;;12.50;99.90;;;;;;5057176;28;20075;-85
2023/05/28 03:50:46;;;;;;;8.93;4.07;;;12.50;99.90;;;;;;5072748;28;20506;-84
2023/05/28 03:53:11;;;;;;;8.93;4.03;;;12.50;99.90;;;;;;5072820;28;20066;-85
2023/05/28 03:55:38;;;;;;;9.52;4.70;;;12.50;99.90;;;;;;5055886;28;20021;-85
2023/05/28 03:58:04;;;;;;;11.55;4.50;;;12.50;99.90;;;;;;5073195;28;20528;-85
2023/05/28 04:00:29;;;;;;;9.27;3.97;;;12.50;99.90;;;;;;5058657;28;20035;-84
2023/05/28 04:02:55;;;;;;;10.70;4.40;;;12.50;99.90;;;;;;5065691;28;20059;-84
2023/05/28 04:05:21;;;;;;;7.97;3.78;;;12.50;99.90;;;;;;5075830;28;20024;-84
2023/05/28 04:07:46;;;;;;;9.88;4.18;;;12.60;99.90;;;;;;5077404;28;20486;-85
2023/05/28 04:10:12;;;;;;;9.10;4.13;;;12.60;99.90;;;;;;5076111;28;20032;-86
2023/05/28 04:12:37;;;;;;;6.35;3.85;;;12.60;99.90;;;;;;5076119;28;20028;-84
2023/05/28 04:15:04;;;;;;;7.78;4.00;;;12.60;99.90;;;;;;5076787;28;20107;-85
2023/05/28 04:17:29;;;;;;;9.75;4.03;;;12.60;99.90;;;;;;5060356;28;20378;-84
2023/05/28 04:19:55;;;;;;;8.48;3.47;;;12.70;99.90;;;;;;5063871;28;20024;-83
2023/05/28 04:22:23;;;;;;;8.25;3.78;;;12.80;99.90;;;;;;5060288;28;20074;-84
2023/05/28 04:24:51;;;;;;;8.13;3.58;;;12.80;99.90;;;;;;5065196;28;20032;-84
2023/05/28 04:27:17;;;;;;;6.75;3.22;;;12.90;99.90;;;;;;5066172;28;20485;-84
2023/05/28 04:29:43;;;;;;;8.93;3.90;;;12.90;99.90;;;;;;5076904;28;20035;-86
2023/05/28 04:32:09;;;;;;;7.63;3.45;;;12.90;99.90;;;;;;5063845;28;20016;-84
2023/05/28 04:34:36;;;;;;;8.95;3.80;;;12.90;99.90;;;;;;5059519;28;20062;-84
2023/05/28 04:37:04;;;;;;;6.60;3.47;;;13.00;99.90;;;;;;5076344;28;20032;-85
2023/05/28 04:39:29;;;;;;;9.52;3.33;;;13.00;99.90;;;;;;5064161;28;20475;-85
2023/05/28 04:41:55;;;;;;;7.57;3.97;;;13.00;99.90;;;;;;5059224;28;20035;-83
2023/05/28 04:44:25;;;;;;;7.82;3.30;;;13.00;99.90;;;;;;5060258;28;20028;-84
2023/05/28 04:46:51;;;;;;;6.70;3.58;;;13.00;99.90;;;;;;5064505;28;20024;-84
2023/05/28 04:49:17;;;;;;;7.57;3.60;;;13.00;99.90;;;;;;5065000;28;20034;-84
2023/05/28 04:51:43;;;;;;;7.88;3.50;;;13.00;99.90;;;;;;5076292;28;20020;-84
2023/05/28 04:54:08;;;;;;;7.88;3.83;;;13.00;99.90;;;;;;5060322;28;20025;-84
2023/05/28 04:56:35;;;;;;;8.30;3.95;;;13.00;99.90;;;;;;5065500;28;20024;-85
2023/05/28 04:59:04;;;;;;;9.35;4.35;;;13.00;99.90;;;;;;5075178;28;20039;-84
2023/05/28 05:01:32;;;;;;;8.00;4.43;;;13.00;99.90;;;;;;5060985;28;20107;-85
2023/05/28 05:03:57;;;;;;;9.23;4.28;;;13.00;99.90;;;;;;5064192;28;20500;-84
2023/05/28 05:06:23;;;;;;;9.55;4.22;;;13.00;99.90;;;;;;5060868;28;20036;-85
2023/05/28 05:08:49;;;;;;;9.55;4.63;;;13.00;99.90;;;;;;5059678;28;20040;-85
2023/05/28 05:11:15;;;;;;;9.82;4.43;;;13.10;99.90;;;;;;5062812;28;20012;-86
2023/05/28 05:13:41;;;;;;;9.27;4.38;;;13.10;99.90;;;;;;5065632;28;20462;-85
2023/05/28 05:16:06;;;;;;;7.82;4.57;;;13.20;99.90;;;;;;5064785;28;20032;-86
2023/05/28 05:18:32;;;;;;;11.05;4.20;;;13.20;99.90;;;;;;5073596;28;20032;-86
2023/05/28 05:20:57;;;;;;;6.78;4.28;;;13.30;99.90;;;;;;5063040;28;20127;-86
2023/05/28 05:23:23;;;;;;;9.80;4.65;;;13.30;99.90;;;;;;5064273;28;20276;-86
2023/05/28 05:25:48;;;;;;;8.43;4.47;;;13.40;99.90;;;;;;5064309;28;20028;-85
2023/05/28 05:28:14;;;;;;;10.40;4.60;;;13.50;99.90;;;;;;5065271;28;20031;-85
2023/05/28 05:30:40;;;;;;;10.45;4.70;;;13.50;99.90;;;;;;5074379;28;20543;-85
2023/05/28 05:33:05;;;;;;;8.68;4.68;;;13.60;99.90;;;;;;5059636;28;20067;-85
2023/05/28 05:35:31;;;;;;;8.35;4.30;;;13.70;99.90;;;;;;5060612;28;20123;-85
2023/05/28 05:37:57;;;;;;;10.00;4.38;;;13.80;99.90;;;;;;5059518;28;20482;-85
2023/05/28 05:40:22;;;;;;;8.75;4.22;;;13.90;99.90;;;;;;5059256;28;20027;-86
2023/05/28 05:42:48;;;;;;;9.18;4.43;;;13.90;99.90;;;;;;5063691;28;20031;-85
2023/05/28 05:45:13;;;;;;;9.80;4.65;;;14.10;99.90;;;;;;5073444;28;20028;-84
2023/05/28 05:47:39;;;;;;;7.68;4.30;;;14.10;99.90;;;;;;5074161;28;20028;-86
2023/05/28 05:50:05;;;;;;;10.30;4.20;;;14.20;99.90;;;;;;5074762;28;20112;-86
2023/05/28 05:52:31;;;;;;;9.32;4.38;;;14.30;99.90;;;;;;5063515;28;20457;-85
2023/05/28 05:54:57;;;;;;;9.68;4.10;;;14.50;99.90;;;;;;5057913;28;20189;-85
2023/05/28 05:57:23;;;;;;;7.85;4.18;;;14.60;99.90;;;;;;5059212;28;20031;-85
2023/05/28 05:59:49;;;;;;;8.00;4.05;;;14.60;99.90;;;;;;5056981;28;20513;-85
2023/05/28 06:02:15;;;;;;;9.85;3.85;;;14.70;99.90;;;;;;5073940;28;20028;-85
2023/05/28 06:04:40;;;;;;;8.13;3.90;;;14.80;99.90;;;;;;5074605;28;20024;-85
2023/05/28 06:07:06;;;;;;;7.13;3.65;;;14.90;99.90;;;;;;5073292;28;20044;-85
2023/05/28 06:09:35;;;;;;;8.05;3.85;;;14.90;99.90;;;;;;5065540;28;20028;-85
2023/05/28 06:12:01;;;;;;;8.07;4.40;;;14.90;99.90;;;;;;5072729;28;20036;-85
2023/05/28 06:14:27;;;;;;;8.80;3.90;;;15.00;99.90;;;;;;5058109;28;20515;-86
2023/05/28 06:16:53;;;;;;;10.88;4.00;;;15.00;99.90;;;;;;5073232;28;20039;-85
2023/05/28 06:19:19;;;;;;;8.98;3.67;;;15.00;99.90;;;;;;5062976;28;20027;-86
2023/05/28 06:21:44;;;;;;;9.55;3.67;;;15.10;99.90;;;;;;5075128;28;20052;-85
2023/05/28 06:24:11;;;;;;;6.95;3.67;;;15.10;99.90;;;;;;5073182;28;20023;-85
2023/05/28 06:26:36;;;;;;;8.68;3.60;;;15.20;99.90;;;;;;5066432;28;20516;-84
2023/05/28 06:29:02;;;;;;;9.10;4.25;;;15.20;99.90;;;;;;5071851;28;20036;-85
2023/05/28 06:31:27;;;;;;;8.60;3.53;;;15.20;99.90;;;;;;5060962;28;20026;-84
2023/05/28 06:33:54;;;;;;;7.43;3.40;;;15.30;99.90;;;;;;5062148;28;20644;-85
2023/05/28 06:36:19;;;;;;;7.65;3.60;;;15.30;99.90;;;;;;5061516;28;20024;-86
2023/05/28 06:38:45;;;;;;;6.57;3.55;;;15.30;99.90;;;;;;5073474;28;20164;-86
2023/05/28 06:41:10;;;;;;;9.40;4.00;;;15.30;99.90;;;;;;5072912;28;20021;-85
2023/05/28 06:43:38;;;;;;;10.02;3.92;;;15.30;99.90;;;;;;5074174;28;20021;-85
2023/05/28 06:46:04;;;;;;;9.23;4.20;;;15.30;99.90;;;;;;5072646;28;20035;-84
2023/05/28 06:48:29;;;;;;;7.97;4.13;;;15.40;99.90;;;;;;5059179;28;20168;-84
2023/05/28 06:50:56;;;;;;;9.30;3.95;;;15.30;99.90;;;;;;5073918;28;20024;-84
2023/05/28 06:53:21;;;;;;;6.97;3.72;;;15.30;99.90;;;;;;5057306;28;20039;-82
2023/05/28 06:55:47;;;;;;;7.15;3.58;;;15.30;99.90;;;;;;5056341;28;20245;-82
2023/05/28 06:58:13;;;;;;;8.82;3.90;;;15.30;99.90;;;;;;5063664;28;20462;-83
2023/05/28 07:00:38;;;;;;;8.68;4.05;;;15.30;99.90;;;;;;5061475;28;20086;-83
2023/05/28 07:03:05;;;;;;;8.45;3.45;;;15.30;99.90;;;;;;5073455;28;21555;-84
2023/05/28 07:05:31;;;;;;;9.00;3.95;;;15.30;99.90;;;;;;5074100;28;20058;-83
2023/05/28 07:07:56;;;;;;;6.13;3.10;;;15.30;99.90;;;;;;5057135;28;20036;-84
2023/05/28 07:10:22;;;;;;;10.68;4.20;;;15.40;99.90;;;;;;5071477;28;20424;-83
2023/05/28 07:12:47;;;;;;;9.82;4.28;;;15.50;99.90;;;;;;5056548;28;20538;-82
2023/05/28 07:15:13;;;;;;;8.73;4.25;;;15.60;99.90;;;;;;5057161;28;20020;-85
2023/05/28 07:17:38;;;;;;;11.55;4.90;;;15.70;99.90;;;;;;5072659;28;20103;-84
2023/05/28 07:20:05;;;;;;;8.82;4.13;;;15.70;99.90;;;;;;5057798;28;20076;-85
2023/05/28 07:22:31;;;;;;;9.00;4.00;;;15.90;99.90;;;;;;5073107;28;20453;-84
2023/05/28 07:24:57;;;;;;;9.95;4.28;;;15.90;99.90;;;;;;5071567;28;20050;-84
2023/05/28 07:27:22;;;;;;;11.07;3.92;;;16.00;99.90;;;;;;5057198;28;20497;-84
2023/05/28 07:29:48;;;;;;;8.93;4.00;;;16.10;99.90;;;;;;5072261;28;20024;-83
2023/05/28 07:32:13;;;;;;;7.82;3.28;;;16.20;99.90;;;;;;5055954;28;20028;-84
2023/05/28 07:34:40;;;;;;;8.85;3.63;;;16.30;99.90;;;;;;5060199;28;20038;-84
2023/05/28 07:37:06;;;;;;;7.05;3.33;;;16.40;99.90;;;;;;5067385;28;20092;-85
2023/05/28 07:39:31;;;;;;;4.93;3.00;;;16.40;99.90;;;;;;5061080;28;20538;-85
2023/05/28 07:41:57;;;;;;;7.95;3.08;;;16.50;99.90;;;;;;5075828;28;20036;-85
2023/05/28 07:44:22;;;;;;;8.88;3.45;;;16.70;99.90;;;;;;5076248;28;20379;-85
2023/05/28 07:46:48;;;;;;;6.93;2.85;;;16.80;99.90;;;;;;5076740;28;20032;-84
2023/05/28 07:49:14;;;;;;;9.50;2.92;;;16.90;99.90;;;;;;5066122;28;20032;-87
2023/05/28 07:51:40;;;;;;;7.15;3.08;;;17.10;99.90;;;;;;5064486;28;20017;-85
2023/05/28 07:54:05;;;;;;;5.80;2.75;;;17.20;99.90;;;;;;5067746;28;20522;-84
2023/05/28 07:56:31;;;;;;;7.00;2.70;;;17.30;99.90;;;;;;5060768;28;20024;-85
2023/05/28 07:58:56;;;;;;;5.43;2.65;;;17.50;99.90;;;;;;5060923;28;20016;-85
2023/05/28 08:01:23;;;;;;;5.15;2.47;;;17.60;99.90;;;;;;5059559;28;20064;-83
2023/05/28 08:03:51;;;;;;;5.57;2.85;;;17.80;99.90;;;;;;5076578;28;20020;-82
2023/05/28 08:06:18;;;;;;;6.32;2.70;;;18.00;99.90;;;;;;5076433;28;20064;-82
2023/05/28 08:08:43;;;;;;;6.07;2.78;;;18.10;99.90;;;;;;5060335;28;20043;-84
2023/05/28 08:11:13;;;;;;;6.68;2.33;;;18.20;99.90;;;;;;5064845;28;20093;-85
2023/05/28 08:13:39;;;;;;;4.70;2.50;;;18.30;99.90;;;;;;5061659;28;20381;-85
2023/05/28 08:16:04;;;;;;;5.90;2.17;;;18.50;99.90;;;;;;5075805;28;20024;-83
2023/05/28 08:18:30;;;;;;;6.20;2.75;;;18.60;99.90;;;;;;5061641;28;20032;-86
2023/05/28 08:20:56;;;;;;;5.97;2.80;;;18.80;99.90;;;;;;5065643;28;20520;-82
2023/05/28 08:23:21;;;;;;;6.13;2.40;;;18.90;99.90;;;;;;5064414;28;20077;-83
2023/05/28 08:25:47;;;;;;;4.45;2.17;;;19.10;99.90;;;;;;5075314;28;20059;-81
2023/05/28 08:28:13;;;;;;;4.18;1.98;;;19.20;99.90;;;;;;5076324;28;20049;-83
2023/05/28 08:30:39;;;;;;;5.72;2.40;;;19.30;99.90;;;;;;5059880;28;20101;-83
2023/05/28 08:33:04;;;;;;;3.95;2.00;;;19.50;99.90;;;;;;5061018;28;20028;-83
2023/05/28 08:35:30;;;;;;;5.57;2.30;;;19.70;99.90;;;;;;5076931;28;20036;-83
2023/05/28 08:37:56;;;;;;;6.85;2.45;;;19.90;99.90;;;;;;5074977;28;20035;-83
2023/05/28 08:40:21;;;;;;;5.00;2.35;;;20.00;99.90;;;;;;5068626;28;20031;-84
2023/05/28 08:42:49;;;;;;;6.35;2.35;;;20.20;99.90;;;;;;5074815;28;20411;-81
2023/05/28 08:45:14;;;;;;;4.30;2.40;;;20.40;99.90;;;;;;5064996;28;20038;-80
2023/05/28 08:47:40;;;;;;;4.90;2.47;;;20.50;99.90;;;;;;5075781;28;20039;-80
2023/05/28 08:50:06;;;;;;;4.38;2.20;;;20.60;99.90;;;;;;5060060;28;20035;-83
2023/05/28 08:52:33;;;;;;;4.30;2.03;;;20.70;99.90;;;;;;5063166;28;20047;-81
2023/05/28 08:55:01;;;;;;;6.70;2.30;;;20.80;99.90;;;;;;5074291;28;20032;-82
2023/05/28 08:57:29;;;;;;;5.10;2.40;;;20.80;99.90;;;;;;5075444;28;20237;-83
2023/05/28 08:59:55;;;;;;;5.28;2.55;;;20.90;99.90;;;;;;5074951;28;20017;-82
2023/05/28 09:02:24;;;;;;;4.55;2.45;;;20.90;99.90;;;;;;5060130;28;20024;-81
2023/05/28 09:04:50;;;;;;;8.43;3.05;;;21.00;99.90;;;;;;5064873;28;20090;-83
2023/05/28 09:07:16;;;;;;;6.35;2.38;;;21.00;99.90;;;;;;5075113;28;20479;-80
2023/05/28 09:09:42;;;;;;;6.60;2.50;;;21.10;99.90;;;;;;5075600;28;20032;-85
2023/05/28 09:12:13;;;;;;;6.07;2.20;;;21.10;99.90;;;;;;5064575;28;20024;-84
2023/05/28 09:14:42;;;;;;;5.40;2.55;;;21.30;99.90;;;;;;5075128;28;20119;-83
2023/05/28 09:17:09;;;;;;;6.78;2.83;;;21.40;99.90;;;;;;5058309;28;20149;-84
2023/05/28 09:19:35;;;;;;;7.95;2.67;;;21.50;99.90;;;;;;5064603;28;20070;-82
2023/05/28 09:22:03;;;;;;;5.78;2.45;;;21.50;99.90;;;;;;5063876;28;20077;-82
2023/05/28 09:24:29;;;;;;;4.60;2.25;;;21.70;99.90;;;;;;5059234;28;20059;-80
2023/05/28 09:26:55;;;;;;;3.45;2.08;;;21.80;99.90;;;;;;5073723;28;20111;-81
2023/05/28 09:29:25;;;;;;;7.03;2.80;;;22.00;99.90;;;;;;5074179;28;20024;-80
2023/05/28 09:31:59;;;;;;;5.32;2.20;;;22.40;99.90;;;;;;5073586;28;20604;-82
2023/05/28 09:34:32;;;;;;;5.13;2.40;;;23.30;99.90;;;;;;5068430;28;20036;-87
2023/05/28 09:37:02;;;;;;;5.88;2.45;;;24.10;99.90;;;;;;5055823;28;20023;-85
2023/05/28 09:39:28;;;;;;;6.78;3.03;;;24.70;99.20;;;;;;5064532;28;20040;-87
2023/05/28 09:42:09;;;;;;;6.53;2.60;;;25.30;98.60;;;;;;5066026;28;20020;-85
2023/05/28 09:44:36;;;;;;;4.72;2.42;;;26.00;98.30;;;;;;5073699;28;20020;-86
2023/05/28 09:47:13;;;;;;;5.10;2.17;;;26.60;97.80;;;;;;5075024;28;20436;-84
2023/05/28 09:49:38;;;;;;;5.57;2.42;;;27.30;97.40;;;;;;5073193;28;20039;-84
2023/05/28 09:52:08;;;;;;;8.23;2.67;;;27.60;96.20;;;;;;5056578;28;20021;-84
2023/05/28 09:54:35;;;;;;;5.07;2.45;;;27.80;95.70;;;;;;5075097;28;20036;-85
2023/05/28 09:57:02;;;;;;;5.72;2.17;;;28.00;95.40;;;;;;5073839;28;20031;-85
2023/05/28 09:59:30;;;;;;;6.43;2.55;;;28.20;95.00;;;;;;5073923;28;20090;-83
2023/05/28 10:02:00;;;;;;;5.82;2.65;;;28.40;94.10;;;;;;5062927;28;20034;-82
2023/05/28 10:04:34;;;;;;;6.60;2.83;;;28.70;93.70;;;;;;5063489;28;20474;-83
2023/05/28 10:07:00;;;;;;;5.32;2.30;;;29.00;93.30;;;;;;5073098;28;20386;-81
2023/05/28 10:09:27;;;;;;;6.30;2.55;;;29.00;92.90;;;;;;5074247;28;20052;-83
2023/05/28 10:12:02;;;;;;;5.35;2.53;;;29.00;92.50;;;;;;5073459;28;20031;-83
2023/05/28 10:14:29;;;;;;;4.85;2.50;;;28.90;92.70;;;;;;5067740;28;20031;-82
2023/05/28 10:16:55;;;;;;;5.20;2.40;;;28.80;92.50;;;;;;5077808;28;20024;-81
2023/05/28 10:19:22;;;;;;;4.78;2.22;;;28.70;92.50;;;;;;5074014;28;20066;-82
2023/05/28 10:21:48;;;;;;;6.05;2.47;;;28.60;92.40;;;;;;5062647;28;20107;-82
2023/05/28 10:24:14;;;;;;;6.55;2.92;;;28.60;92.10;;;;;;5072743;28;20024;-83
2023/05/28 10:26:40;;;;;;;5.45;2.63;;;28.70;91.70;;;;;;5073130;28;20077;-85
2023/05/28 10:29:09;;;;;;;6.65;2.88;;;29.00;91.90;;;;;;5072971;28;20524;-85
2023/05/28 10:31:35;;;;;;;5.95;2.63;;;29.40;91.30;;;;;;5072796;28;20481;-85
2023/05/28 10:34:00;;;;;;;6.15;2.95;;;29.60;91.00;;;;;;5078271;28;20032;-85
2023/05/28 10:36:26;;;;;;;7.88;3.10;;;29.70;90.80;;;;;;5055968;28;20458;-83
2023/05/28 10:38:52;;;;;;;5.72;2.72;;;29.90;90.40;;;;;;5062572;28;20028;-86
2023/05/28 10:41:21;;;;;;;8.02;2.72;;;30.00;90.20;;;;;;5060568;28;20035;-86
2023/05/28 10:43:51;;;;;;;5.28;2.92;;;30.30;89.60;;;;;;5079724;28;20031;-87
2023/05/28 10:46:20;;;;;;;6.35;2.97;;;30.50;88.70;;;;;;5076304;28;20029;-86
2023/05/28 10:49:06;;;;;;;5.45;2.33;;;30.50;88.00;;;;;;5057105;28;20031;-83
2023/05/28 10:51:55;;;;;;;4.30;2.40;;;30.40;87.90;;;;;;5072480;28;20102;-84
2023/05/28 10:54:39;;;;;;;5.57;2.40;;;30.40;88.30;;;;;;5064251;28;20028;-84
2023/05/28 10:57:15;;;;;;;5.57;2.58;;;30.40;88.40;;;;;;5073578;28;20024;-84
2023/05/28 10:59:52;;;;;;;6.40;2.53;;;30.30;88.10;;;;;;5074440;28;20066;-86
2023/05/28 11:02:28;;;;;;;4.28;2.30;;;30.50;88.00;;;;;;5058282;28;20417;-84
2023/05/28 11:04:56;;;;;;;5.78;2.67;;;31.10;87.30;;;;;;5072211;28;20021;-83
2023/05/28 11:07:27;;;;;;;7.50;2.80;;;31.20;86.40;;;;;;5072415;28;20074;-86
2023/05/28 11:09:55;;;;;;;5.75;2.67;;;30.80;85.00;;;;;;5072550;28;20119;-84
2023/05/28 11:12:21;;;;;;;6.85;2.85;;;30.00;85.20;;;;;;5072350;28;20084;-80
2023/05/28 11:14:47;;;;;;;7.13;2.88;;;29.30;85.20;;;;;;5073016;28;20028;-86
2023/05/28 11:17:13;;;;;;;5.88;2.90;;;28.70;85.50;;;;;;5074005;28;20036;-85
2023/05/28 11:19:41;;;;;;;4.82;2.50;;;28.70;85.90;;;;;;5073881;28;20556;-83
2023/05/28 11:22:06;;;;;;;5.10;2.63;;;29.00;85.70;;;;;;5058006;28;20044;-84
2023/05/28 11:24:32;;;;;;;5.28;2.67;;;29.40;85.30;;;;;;5062545;28;20059;-84
2023/05/28 11:26:58;;;;;;;5.07;2.35;;;29.70;85.40;;;;;;5071191;28;20276;-83
2023/05/28 11:29:24;;;;;;;5.70;2.50;;;30.10;85.50;;;;;;5073499;28;20028;-84
2023/05/28 11:31:49;;;;;;;6.57;3.22;;;30.20;84.90;;;;;;5064970;28;20016;-84
2023/05/28 11:34:19;;;;;;;6.85;2.72;;;30.30;85.20;;;;;;5072180;28;20028;-84
2023/05/28 11:36:45;;;;;;;6.15;2.90;;;30.40;84.50;;;;;;5061851;28;20039;-84
2023/05/28 11:39:11;;;;;;;6.00;2.80;;;30.50;84.10;;;;;;5056204;28;20036;-84
2023/05/28 11:41:37;;;;;;;6.40;2.88;;;30.50;83.60;;;;;;5062034;28;20023;-83
2023/05/28 11:44:17;;;;;;;5.72;2.78;;;30.60;83.20;;;;;;5073393;28;20032;-83
2023/05/28 11:46:42;;;;;;;5.20;2.30;;;30.70;82.90;;;;;;5056814;28;20536;-84
2023/05/28 11:49:08;;;;;;;6.45;3.00;;;30.70;82.50;;;;;;5061378;28;20556;-84
2023/05/28 11:51:35;;;;;;;5.82;2.60;;;30.90;82.50;;;;;;5061647;28;20035;-83
2023/05/28 11:54:01;;;;;;;8.73;3.15;;;31.20;82.30;;;;;;5061997;28;20085;-83
2023/05/28 11:56:27;;;;;;;7.15;2.30;;;31.30;80.70;;;;;;5057146;28;20021;-85
2023/05/28 11:58:53;;;;;;;6.40;2.20;;;31.30;81.10;;;;;;5072884;28;20036;-83
2023/05/28 12:01:18;;;;;;;3.85;2.08;;;31.40;81.10;;;;;;5061274;28;20469;-84
2023/05/28 12:03:44;;;;;;;5.07;2.70;;;31.40;79.90;;;;;;5062833;28;20034;-84
2023/05/28 12:06:13;;;;;;;6.65;2.83;;;31.20;79.10;;;;;;5060694;28;20077;-84
2023/05/28 12:08:39;;;;;;;6.68;2.60;;;30.90;78.90;;;;;;5056151;28;20036;-84
2023/05/28 12:11:07;;;;;;;4.93;2.40;;;30.80;78.40;;;;;;5056356;28;20355;-84
2023/05/28 12:13:37;;;;;;;5.53;2.28;;;30.80;78.90;;;;;;5060972;28;20101;-84
2023/05/28 12:16:11;;;;;;;4.68;2.55;;;31.00;78.60;;;;;;5061475;28;20032;-84
2023/05/28 12:18:43;;;;;;;5.00;2.30;;;30.90;78.40;;;;;;5061951;28;20107;-85
2023/05/28 12:21:13;;;;;;;5.95;2.08;;;30.90;78.10;;;;;;5063498;28;20653;-84
2023/05/28 12:23:41;;;;;;;6.05;2.70;;;30.80;78.00;;;;;;5059237;28;20086;-88
2023/05/28 12:26:13;;;;;;;5.68;2.33;;;30.80;78.30;;;;;;5061025;28;20023;-86
2023/05/28 12:28:40;;;;;;;5.63;2.17;;;31.00;78.10;;;;;;5066284;28;20118;-82
2023/05/28 12:31:06;;;;;;;5.85;2.55;;;31.20;78.10;;;;;;5058069;28;20039;-88
2023/05/28 12:33:32;;;;;;;4.60;2.58;;;31.50;77.80;;;;;;5076010;28;20031;-85
2023/05/28 12:35:59;;;;;;;4.43;1.98;;;31.60;77.30;;;;;;5059373;28;20021;-86
2023/05/28 12:38:26;;;;;;;5.45;2.50;;;32.10;77.50;;;;;;5068682;28;20032;-87
2023/05/28 12:40:52;;;;;;;5.25;2.60;;;32.60;76.40;;;;;;5060892;28;20505;-87
2023/05/28 12:43:18;;;;;;;4.35;2.13;;;32.90;76.00;;;;;;5061967;28;20036;-89